sensor_id;sensor_type;location;lat;lon;timestamp;pressure;altitude;pressure_sealevel;temperature;humidity
11099;BME280;12223;42.650;23.364;2022-10-31T00:01:11;95190.03;;;15.00;56.88
11099;BME280;12223;42.650;23.364;2022-10-31T00:03:40;95194.03;;;15.14;56.33
11099;BME280;12223;42.650;23.364;2022-10-31T00:06:07;95180.75;;;15.14;56.09
11099;BME280;12223;42.650;23.364;2022-10-31T00:08:34;95175.66;;;15.13;56.42
11099;BME280;12223;42.650;23.364;2022-10-31T00:11:01;95200.31;;;15.08;57.01
11099;BME280;12223;42.650;23.364;2022-10-31T00:13:28;95189.00;;;15.01;57.46
11099;BME280;12223;42.650;23.364;2022-10-31T00:15:55;95181.69;;;15.08;57.51
11099;BME280;12223;42.650;23.364;2022-10-31T00:18:24;95182.25;;;15.10;57.26
11099;BME280;12223;42.650;23.364;2022-10-31T00:20:58;95183.66;;;15.01;58.25
11099;BME280;12223;42.650;23.364;2022-10-31T00:23:25;95188.28;;;15.34;57.26
11099;BME280;12223;42.650;23.364;2022-10-31T00:25:52;95191.25;;;15.21;57.51
11099;BME280;12223;42.650;23.364;2022-10-31T00:28:20;95187.31;;;15.12;57.60
11099;BME280;12223;42.650;23.364;2022-10-31T00:30:47;95186.88;;;15.15;57.54
11099;BME280;12223;42.650;23.364;2022-10-31T00:33:14;95193.31;;;15.19;57.43
11099;BME280;12223;42.650;23.364;2022-10-31T00:35:43;95187.72;;;15.04;58.20
11099;BME280;12223;42.650;23.364;2022-10-31T00:38:09;95180.16;;;15.12;57.85
11099;BME280;12223;42.650;23.364;2022-10-31T00:40:37;95186.97;;;15.20;58.00
11099;BME280;12223;42.650;23.364;2022-10-31T00:43:05;95184.44;;;15.13;58.48
11099;BME280;12223;42.650;23.364;2022-10-31T00:45:31;95188.50;;;15.16;58.28
11099;BME280;12223;42.650;23.364;2022-10-31T00:47:59;95183.84;;;15.11;58.39
11099;BME280;12223;42.650;23.364;2022-10-31T00:50:25;95187.41;;;14.88;59.84
11099;BME280;12223;42.650;23.364;2022-10-31T00:52:54;95188.50;;;15.16;59.14
11099;BME280;12223;42.650;23.364;2022-10-31T00:55:20;95186.91;;;15.03;59.73
11099;BME280;12223;42.650;23.364;2022-10-31T00:57:47;95192.75;;;15.17;59.10
11099;BME280;12223;42.650;23.364;2022-10-31T01:00:15;95195.31;;;15.12;59.29
11099;BME280;12223;42.650;23.364;2022-10-31T01:02:42;95194.97;;;15.08;59.68
11099;BME280;12223;42.650;23.364;2022-10-31T01:05:32;95155.25;;;14.50;60.11
11099;BME280;12223;42.650;23.364;2022-10-31T01:08:26;95120.13;;;14.25;60.61
11099;BME280;12223;42.650;23.364;2022-10-31T01:11:11;95088.06;;;14.03;61.34
11099;BME280;12223;42.650;23.364;2022-10-31T01:13:53;95183.19;;;14.64;62.08
11099;BME280;12223;42.650;23.364;2022-10-31T01:16:21;95189.34;;;14.53;62.72
11099;BME280;12223;42.650;23.364;2022-10-31T01:18:50;95197.41;;;14.58;63.29
11099;BME280;12223;42.650;23.364;2022-10-31T01:21:18;95200.63;;;14.72;62.58
11099;BME280;12223;42.650;23.364;2022-10-31T01:23:48;95170.28;;;14.21;64.43
11099;BME280;12223;42.650;23.364;2022-10-31T01:26:17;95204.59;;;14.58;63.71
11099;BME280;12223;42.650;23.364;2022-10-31T01:28:46;95207.22;;;14.69;63.70
11099;BME280;12223;42.650;23.364;2022-10-31T01:31:13;95208.06;;;14.58;63.94
11099;BME280;12223;42.650;23.364;2022-10-31T01:33:40;95210.59;;;14.53;64.52
11099;BME280;12223;42.650;23.364;2022-10-31T01:36:18;95202.59;;;14.18;65.91
11099;BME280;12223;42.650;23.364;2022-10-31T01:38:45;95201.91;;;14.23;66.56
11099;BME280;12223;42.650;23.364;2022-10-31T01:41:15;95212.91;;;14.26;66.76
11099;BME280;12223;42.650;23.364;2022-10-31T01:43:49;95205.31;;;14.41;66.01
11099;BME280;12223;42.650;23.364;2022-10-31T01:46:19;95213.03;;;14.43;66.08
11099;BME280;12223;42.650;23.364;2022-10-31T01:48:48;95211.75;;;14.45;66.49
11099;BME280;12223;42.650;23.364;2022-10-31T01:51:16;95216.00;;;14.23;67.35
11099;BME280;12223;42.650;23.364;2022-10-31T01:53:45;95213.94;;;14.02;68.52
11099;BME280;12223;42.650;23.364;2022-10-31T01:56:15;95216.03;;;13.58;72.80
11099;BME280;12223;42.650;23.364;2022-10-31T01:58:45;95211.97;;;13.56;73.50
11099;BME280;12223;42.650;23.364;2022-10-31T02:01:12;95207.47;;;13.45;74.80
11099;BME280;12223;42.650;23.364;2022-10-31T02:03:42;95198.03;;;13.60;74.12
11099;BME280;12223;42.650;23.364;2022-10-31T02:06:16;95196.91;;;13.91;72.84
11099;BME280;12223;42.650;23.364;2022-10-31T02:08:45;95204.34;;;14.01;71.76
11099;BME280;12223;42.650;23.364;2022-10-31T02:11:15;95203.97;;;13.97;71.95
11099;BME280;12223;42.650;23.364;2022-10-31T02:13:42;95205.94;;;13.90;73.31
11099;BME280;12223;42.650;23.364;2022-10-31T02:16:09;95190.78;;;13.79;73.96
11099;BME280;12223;42.650;23.364;2022-10-31T02:18:36;95207.53;;;13.80;74.63
11099;BME280;12223;42.650;23.364;2022-10-31T02:21:09;95208.66;;;13.72;75.36
11099;BME280;12223;42.650;23.364;2022-10-31T02:24:10;95205.44;;;13.70;76.04
11099;BME280;12223;42.650;23.364;2022-10-31T02:26:52;95200.94;;;13.71;76.17
11099;BME280;12223;42.650;23.364;2022-10-31T02:32:22;95208.53;;;13.67;77.08
11099;BME280;12223;42.650;23.364;2022-10-31T02:34:57;95224.16;;;13.34;80.83
11099;BME280;12223;42.650;23.364;2022-10-31T02:37:31;95225.13;;;13.51;81.53
11099;BME280;12223;42.650;23.364;2022-10-31T02:40:05;95230.97;;;13.41;82.37
11099;BME280;12223;42.650;23.364;2022-10-31T02:42:41;95233.63;;;13.71;80.63
11099;BME280;12223;42.650;23.364;2022-10-31T02:45:14;95228.88;;;13.85;78.04
11099;BME280;12223;42.650;23.364;2022-10-31T02:47:48;95216.19;;;13.75;78.71
11099;BME280;12223;42.650;23.364;2022-10-31T02:50:18;95230.50;;;13.86;77.60
11099;BME280;12223;42.650;23.364;2022-10-31T02:52:51;95227.66;;;13.99;77.03
11099;BME280;12223;42.650;23.364;2022-10-31T02:55:44;95233.44;;;14.07;76.59
11099;BME280;12223;42.650;23.364;2022-10-31T02:58:14;95227.31;;;13.95;76.71
11099;BME280;12223;42.650;23.364;2022-10-31T03:00:49;95234.59;;;14.12;76.39
11099;BME280;12223;42.650;23.364;2022-10-31T03:03:23;95233.31;;;14.02;76.66
11099;BME280;12223;42.650;23.364;2022-10-31T03:05:55;95224.88;;;14.05;75.78
11099;BME280;12223;42.650;23.364;2022-10-31T03:08:30;95241.28;;;14.02;77.51
11099;BME280;12223;42.650;23.364;2022-10-31T03:11:03;95233.78;;;13.99;79.00
11099;BME280;12223;42.650;23.364;2022-10-31T03:13:34;95241.63;;;13.94;78.80
11099;BME280;12223;42.650;23.364;2022-10-31T03:16:09;95238.47;;;13.86;79.71
11099;BME280;12223;42.650;23.364;2022-10-31T03:18:40;95238.94;;;13.83;80.33
11099;BME280;12223;42.650;23.364;2022-10-31T03:21:13;95231.44;;;13.91;80.26
11099;BME280;12223;42.650;23.364;2022-10-31T03:23:43;95236.69;;;13.56;82.52
11099;BME280;12223;42.650;23.364;2022-10-31T03:26:12;95240.28;;;13.62;83.24
11099;BME280;12223;42.650;23.364;2022-10-31T03:28:43;95234.88;;;13.68;82.66
11099;BME280;12223;42.650;23.364;2022-10-31T03:31:13;95238.72;;;13.84;82.83
11099;BME280;12223;42.650;23.364;2022-10-31T03:33:45;95241.00;;;13.81;81.02
11099;BME280;12223;42.650;23.364;2022-10-31T03:36:15;95251.47;;;13.64;80.93
11099;BME280;12223;42.650;23.364;2022-10-31T03:38:45;95234.22;;;13.43;82.15
11099;BME280;12223;42.650;23.364;2022-10-31T03:41:16;95256.88;;;13.27;85.39
11099;BME280;12223;42.650;23.364;2022-10-31T03:43:49;95258.72;;;13.27;86.56
11099;BME280;12223;42.650;23.364;2022-10-31T03:46:17;95253.41;;;13.27;85.54
11099;BME280;12223;42.650;23.364;2022-10-31T03:48:45;95261.28;;;13.34;85.46
11099;BME280;12223;42.650;23.364;2022-10-31T03:51:16;95260.91;;;13.12;86.79
11099;BME280;12223;42.650;23.364;2022-10-31T03:53:52;95269.25;;;13.15;88.96
11099;BME280;12223;42.650;23.364;2022-10-31T03:56:28;95269.56;;;12.89;91.10
11099;BME280;12223;42.650;23.364;2022-10-31T03:58:59;95267.91;;;13.06;90.01
11099;BME280;12223;42.650;23.364;2022-10-31T04:01:29;95271.25;;;13.20;88.65
11099;BME280;12223;42.650;23.364;2022-10-31T04:03:58;95275.50;;;13.03;89.89
11099;BME280;12223;42.650;23.364;2022-10-31T04:06:27;95285.16;;;13.15;88.91
11099;BME280;12223;42.650;23.364;2022-10-31T04:08:57;95280.72;;;13.09;89.28
11099;BME280;12223;42.650;23.364;2022-10-31T04:11:28;95280.72;;;13.09;89.64
11099;BME280;12223;42.650;23.364;2022-10-31T04:13:57;95291.56;;;13.08;89.97
11099;BME280;12223;42.650;23.364;2022-10-31T04:16:26;95283.44;;;13.03;91.80
11099;BME280;12223;42.650;23.364;2022-10-31T04:18:53;95281.25;;;13.00;89.15
11099;BME280;12223;42.650;23.364;2022-10-31T04:21:26;95289.28;;;12.93;90.29
11099;BME280;12223;42.650;23.364;2022-10-31T04:23:54;95278.06;;;12.91;91.33
11099;BME280;12223;42.650;23.364;2022-10-31T04:26:21;95278.75;;;12.86;92.15
11099;BME280;12223;42.650;23.364;2022-10-31T04:28:47;95289.28;;;12.75;94.12
11099;BME280;12223;42.650;23.364;2022-10-31T04:31:14;95286.16;;;12.78;94.41
11099;BME280;12223;42.650;23.364;2022-10-31T04:33:41;95281.59;;;12.85;95.14
11099;BME280;12223;42.650;23.364;2022-10-31T04:36:08;95286.28;;;12.89;94.31
11099;BME280;12223;42.650;23.364;2022-10-31T04:38:37;95283.66;;;12.65;97.17
11099;BME280;12223;42.650;23.364;2022-10-31T04:41:04;95292.75;;;12.75;98.01
11099;BME280;12223;42.650;23.364;2022-10-31T04:43:31;95293.69;;;12.63;98.71
11099;BME280;12223;42.650;23.364;2022-10-31T04:45:57;95290.88;;;12.58;100.00
11099;BME280;12223;42.650;23.364;2022-10-31T04:48:25;95282.63;;;12.66;100.00
11099;BME280;12223;42.650;23.364;2022-10-31T04:50:51;95278.75;;;12.68;100.00
11099;BME280;12223;42.650;23.364;2022-10-31T04:53:18;95294.50;;;12.81;100.00
11099;BME280;12223;42.650;23.364;2022-10-31T04:55:46;95296.69;;;12.66;100.00
11099;BME280;12223;42.650;23.364;2022-10-31T04:58:13;95301.31;;;12.53;100.00
11099;BME280;12223;42.650;23.364;2022-10-31T05:00:40;95309.13;;;12.66;100.00
11099;BME280;12223;42.650;23.364;2022-10-31T05:03:07;95303.25;;;12.64;100.00
11099;BME280;12223;42.650;23.364;2022-10-31T05:05:34;95304.28;;;12.63;100.00
11099;BME280;12223;42.650;23.364;2022-10-31T05:08:01;95301.25;;;12.77;100.00
11099;BME280;12223;42.650;23.364;2022-10-31T05:10:29;95310.69;;;12.92;100.00
11099;BME280;12223;42.650;23.364;2022-10-31T05:12:59;95311.66;;;12.79;100.00
11099;BME280;12223;42.650;23.364;2022-10-31T05:15:27;95308.25;;;12.90;100.00
11099;BME280;12223;42.650;23.364;2022-10-31T05:17:54;95318.16;;;13.01;100.00
11099;BME280;12223;42.650;23.364;2022-10-31T05:20:24;95314.94;;;13.17;100.00
11099;BME280;12223;42.650;23.364;2022-10-31T05:22:53;95304.13;;;14.08;93.64
11099;BME280;12223;42.650;23.364;2022-10-31T05:25:22;95325.81;;;14.47;85.29
11099;BME280;12223;42.650;23.364;2022-10-31T05:27:50;95323.66;;;14.14;85.03
11099;BME280;12223;42.650;23.364;2022-10-31T05:30:21;95331.22;;;13.69;89.35
11099;BME280;12223;42.650;23.364;2022-10-31T05:32:50;95331.19;;;13.57;90.08
11099;BME280;12223;42.650;23.364;2022-10-31T05:35:18;95325.06;;;13.87;88.30
11099;BME280;12223;42.650;23.364;2022-10-31T05:37:45;95341.09;;;13.32;91.69
11099;BME280;12223;42.650;23.364;2022-10-31T05:40:15;95329.88;;;13.12;94.96
11099;BME280;12223;42.650;23.364;2022-10-31T05:42:42;95329.94;;;13.05;95.39
11099;BME280;12223;42.650;23.364;2022-10-31T05:45:11;95333.28;;;13.19;94.10
11099;BME280;12223;42.650;23.364;2022-10-31T05:47:50;95338.72;;;13.24;96.24
11099;BME280;12223;42.650;23.364;2022-10-31T05:50:16;95341.03;;;13.20;95.98
11099;BME280;12223;42.650;23.364;2022-10-31T05:52:46;95340.50;;;13.30;95.16
11099;BME280;12223;42.650;23.364;2022-10-31T05:55:13;95345.09;;;12.98;98.96
11099;BME280;12223;42.650;23.364;2022-10-31T05:57:40;95348.06;;;13.08;97.97
11099;BME280;12223;42.650;23.364;2022-10-31T06:00:09;95349.06;;;13.14;98.66
11099;BME280;12223;42.650;23.364;2022-10-31T06:02:35;95354.66;;;13.72;96.94
11099;BME280;12223;42.650;23.364;2022-10-31T06:05:04;95352.94;;;15.42;86.56
11099;BME280;12223;42.650;23.364;2022-10-31T06:07:32;95358.03;;;17.67;68.95
11099;BME280;12223;42.650;23.364;2022-10-31T06:10:01;95338.09;;;19.87;57.87
11099;BME280;12223;42.650;23.364;2022-10-31T06:12:28;95353.16;;;21.70;49.28
11099;BME280;12223;42.650;23.364;2022-10-31T06:14:55;95354.56;;;23.29;43.49
11099;BME280;12223;42.650;23.364;2022-10-31T06:17:22;95364.75;;;24.32;39.42
11099;BME280;12223;42.650;23.364;2022-10-31T06:19:48;95355.44;;;25.59;37.09
11099;BME280;12223;42.650;23.364;2022-10-31T06:22:17;95372.84;;;26.71;34.59
11099;BME280;12223;42.650;23.364;2022-10-31T06:24:43;95335.97;;;26.61;33.51
11099;BME280;12223;42.650;23.364;2022-10-31T06:27:11;95372.06;;;27.59;32.07
11099;BME280;12223;42.650;23.364;2022-10-31T06:29:38;95358.47;;;28.47;30.84
11099;BME280;12223;42.650;23.364;2022-10-31T06:32:10;95380.91;;;28.87;29.52
11099;BME280;12223;42.650;23.364;2022-10-31T06:34:37;95390.94;;;29.47;28.63
11099;BME280;12223;42.650;23.364;2022-10-31T06:37:05;95391.22;;;30.47;27.92
11099;BME280;12223;42.650;23.364;2022-10-31T06:39:34;95390.25;;;30.52;26.99
11099;BME280;12223;42.650;23.364;2022-10-31T06:42:01;95388.19;;;30.40;26.52
11099;BME280;12223;42.650;23.364;2022-10-31T06:44:28;95393.81;;;30.06;27.20
11099;BME280;12223;42.650;23.364;2022-10-31T06:46:58;95391.25;;;29.54;27.31
11099;BME280;12223;42.650;23.364;2022-10-31T06:49:25;95389.19;;;29.16;28.32
11099;BME280;12223;42.650;23.364;2022-10-31T06:51:52;95386.31;;;29.30;28.06
11099;BME280;12223;42.650;23.364;2022-10-31T06:54:19;95397.81;;;29.53;27.73
11099;BME280;12223;42.650;23.364;2022-10-31T06:56:50;95394.19;;;29.14;28.02
11099;BME280;12223;42.650;23.364;2022-10-31T06:59:17;95391.84;;;28.30;29.12
11099;BME280;12223;42.650;23.364;2022-10-31T07:01:43;95387.25;;;28.00;29.19
11099;BME280;12223;42.650;23.364;2022-10-31T07:04:10;95400.47;;;27.09;30.43
11099;BME280;12223;42.650;23.364;2022-10-31T07:06:40;95394.81;;;26.20;31.85
11099;BME280;12223;42.650;23.364;2022-10-31T07:09:07;95386.09;;;25.22;33.26
11099;BME280;12223;42.650;23.364;2022-10-31T07:11:35;95393.47;;;24.23;35.31
11099;BME280;12223;42.650;23.364;2022-10-31T07:14:03;95395.06;;;23.52;36.51
11099;BME280;12223;42.650;23.364;2022-10-31T07:16:30;95363.69;;;23.04;37.73
11099;BME280;12223;42.650;23.364;2022-10-31T07:18:57;95391.41;;;23.38;37.98
11099;BME280;12223;42.650;23.364;2022-10-31T07:21:24;95376.53;;;23.93;37.13
11099;BME280;12223;42.650;23.364;2022-10-31T07:23:58;95381.72;;;25.07;35.48
11099;BME280;12223;42.650;23.364;2022-10-31T07:26:26;95371.81;;;25.03;34.70
11099;BME280;12223;42.650;23.364;2022-10-31T07:28:54;95369.16;;;27.03;32.79
11099;BME280;12223;42.650;23.364;2022-10-31T07:31:22;95363.41;;;28.36;29.98
11099;BME280;12223;42.650;23.364;2022-10-31T07:33:50;95363.72;;;29.55;28.58
11099;BME280;12223;42.650;23.364;2022-10-31T07:36:17;95366.63;;;29.88;27.95
11099;BME280;12223;42.650;23.364;2022-10-31T07:38:43;95361.31;;;30.01;27.71
11099;BME280;12223;42.650;23.364;2022-10-31T07:41:10;95372.97;;;29.72;27.69
11099;BME280;12223;42.650;23.364;2022-10-31T07:43:37;95372.56;;;27.62;30.12
11099;BME280;12223;42.650;23.364;2022-10-31T07:46:04;95374.75;;;28.30;29.57
11099;BME280;12223;42.650;23.364;2022-10-31T07:48:32;95369.63;;;27.89;29.93
11099;BME280;12223;42.650;23.364;2022-10-31T07:50:59;95371.50;;;26.96;31.26
11099;BME280;12223;42.650;23.364;2022-10-31T07:53:26;95374.44;;;24.70;34.59
11099;BME280;12223;42.650;23.364;2022-10-31T07:55:53;95375.56;;;24.51;35.17
11099;BME280;12223;42.650;23.364;2022-10-31T07:58:19;95372.47;;;23.96;36.30
11099;BME280;12223;42.650;23.364;2022-10-31T08:00:47;95374.34;;;23.72;37.12
11099;BME280;12223;42.650;23.364;2022-10-31T08:03:15;95379.56;;;24.11;36.58
11099;BME280;12223;42.650;23.364;2022-10-31T08:05:46;95378.31;;;24.27;36.21
11099;BME280;12223;42.650;23.364;2022-10-31T08:08:13;95378.47;;;24.12;36.09
11099;BME280;12223;42.650;23.364;2022-10-31T08:10:40;95385.72;;;23.40;37.82
11099;BME280;12223;42.650;23.364;2022-10-31T08:13:09;95380.84;;;22.35;39.33
11099;BME280;12223;42.650;23.364;2022-10-31T08:15:36;95375.66;;;21.89;40.79
11099;BME280;12223;42.650;23.364;2022-10-31T08:18:05;95379.34;;;21.29;42.43
11099;BME280;12223;42.650;23.364;2022-10-31T08:20:32;95377.72;;;20.87;43.36
11099;BME280;12223;42.650;23.364;2022-10-31T08:23:01;95376.34;;;20.39;44.61
11099;BME280;12223;42.650;23.364;2022-10-31T08:25:30;95380.25;;;19.96;45.85
11099;BME280;12223;42.650;23.364;2022-10-31T08:27:57;95377.84;;;19.48;47.93
11099;BME280;12223;42.650;23.364;2022-10-31T08:30:26;95381.38;;;19.16;48.59
11099;BME280;12223;42.650;23.364;2022-10-31T08:33:00;95363.00;;;18.88;50.22
11099;BME280;12223;42.650;23.364;2022-10-31T08:35:28;95378.03;;;18.94;50.59
11099;BME280;12223;42.650;23.364;2022-10-31T08:37:55;95371.84;;;18.88;51.09
11099;BME280;12223;42.650;23.364;2022-10-31T08:40:24;95372.94;;;18.61;52.79
11099;BME280;12223;42.650;23.364;2022-10-31T08:42:59;95364.84;;;18.82;52.33
11099;BME280;12223;42.650;23.364;2022-10-31T08:45:26;95369.19;;;18.94;52.42
11099;BME280;12223;42.650;23.364;2022-10-31T08:47:56;95369.84;;;19.11;52.13
11099;BME280;12223;42.650;23.364;2022-10-31T08:50:23;95364.50;;;19.16;51.87
11099;BME280;12223;42.650;23.364;2022-10-31T08:52:50;95364.19;;;19.02;51.86
11099;BME280;12223;42.650;23.364;2022-10-31T08:55:17;95367.53;;;19.24;51.88
11099;BME280;12223;42.650;23.364;2022-10-31T08:57:45;95369.44;;;18.60;53.50
11099;BME280;12223;42.650;23.364;2022-10-31T09:00:13;95360.41;;;19.03;52.70
11099;BME280;12223;42.650;23.364;2022-10-31T09:02:40;95363.81;;;19.31;51.93
11099;BME280;12223;42.650;23.364;2022-10-31T09:05:07;95362.47;;;19.28;51.49
11099;BME280;12223;42.650;23.364;2022-10-31T09:07:34;95364.75;;;19.09;52.35
11099;BME280;12223;42.650;23.364;2022-10-31T09:10:01;95360.88;;;18.90;53.04
11099;BME280;12223;42.650;23.364;2022-10-31T09:12:27;95356.16;;;19.07;52.50
11099;BME280;12223;42.650;23.364;2022-10-31T09:14:56;95361.28;;;19.51;51.78
11099;BME280;12223;42.650;23.364;2022-10-31T09:17:26;95357.75;;;19.45;51.81
11099;BME280;12223;42.650;23.364;2022-10-31T09:19:54;95357.91;;;19.81;50.88
11099;BME280;12223;42.650;23.364;2022-10-31T09:22:21;95354.66;;;19.68;50.94
11099;BME280;12223;42.650;23.364;2022-10-31T09:24:48;95354.41;;;19.70;50.92
11099;BME280;12223;42.650;23.364;2022-10-31T09:27:15;95346.94;;;19.82;50.24
11099;BME280;12223;42.650;23.364;2022-10-31T09:29:42;95361.88;;;20.35;49.31
11099;BME280;12223;42.650;23.364;2022-10-31T09:32:10;95352.50;;;20.58;48.46
11099;BME280;12223;42.650;23.364;2022-10-31T09:34:37;95348.47;;;20.71;47.62
11099;BME280;12223;42.650;23.364;2022-10-31T09:37:03;95343.38;;;20.90;46.93
11099;BME280;12223;42.650;23.364;2022-10-31T09:39:30;95354.38;;;20.83;47.17
11099;BME280;12223;42.650;23.364;2022-10-31T09:42:23;95344.97;;;21.11;46.52
11099;BME280;12223;42.650;23.364;2022-10-31T09:45:01;95348.72;;;21.30;46.03
11099;BME280;12223;42.650;23.364;2022-10-31T09:47:38;95350.56;;;21.40;46.12
11099;BME280;12223;42.650;23.364;2022-10-31T09:50:14;95348.66;;;21.55;45.62
11099;BME280;12223;42.650;23.364;2022-10-31T09:52:50;95351.59;;;21.59;45.73
11099;BME280;12223;42.650;23.364;2022-10-31T09:55:24;95332.28;;;21.42;45.64
11099;BME280;12223;42.650;23.364;2022-10-31T09:57:55;95346.28;;;21.13;46.62
11099;BME280;12223;42.650;23.364;2022-10-31T10:00:22;95339.59;;;20.96;46.94
11099;BME280;12223;42.650;23.364;2022-10-31T10:02:55;95330.97;;;21.14;46.82
11099;BME280;12223;42.650;23.364;2022-10-31T10:05:27;95334.94;;;21.62;45.85
11099;BME280;12223;42.650;23.364;2022-10-31T10:08:01;95336.66;;;21.22;45.95
11099;BME280;12223;42.650;23.364;2022-10-31T10:10:39;95328.25;;;21.39;45.74
11099;BME280;12223;42.650;23.364;2022-10-31T10:16:21;95319.97;;;21.25;45.41
11099;BME280;12223;42.650;23.364;2022-10-31T10:19:05;95314.56;;;21.41;44.82
11099;BME280;12223;42.650;23.364;2022-10-31T10:21:41;95319.34;;;21.59;44.22
11099;BME280;12223;42.650;23.364;2022-10-31T10:24:25;95310.22;;;21.55;43.63
11099;BME280;12223;42.650;23.364;2022-10-31T10:29:45;95308.41;;;22.04;42.77
11099;BME280;12223;42.650;23.364;2022-10-31T10:32:19;95304.25;;;22.22;42.01
11099;BME280;12223;42.650;23.364;2022-10-31T10:34:51;95303.94;;;22.29;42.10
11099;BME280;12223;42.650;23.364;2022-10-31T10:37:25;95296.53;;;22.50;41.65
11099;BME280;12223;42.650;23.364;2022-10-31T10:39:56;95290.34;;;22.10;42.15
11099;BME280;12223;42.650;23.364;2022-10-31T10:42:27;95283.78;;;22.21;41.43
11099;BME280;12223;42.650;23.364;2022-10-31T10:45:17;95292.53;;;22.03;41.93
11099;BME280;12223;42.650;23.364;2022-10-31T10:48:07;95290.28;;;22.15;41.88
11099;BME280;12223;42.650;23.364;2022-10-31T10:50:44;95291.19;;;22.05;41.75
11099;BME280;12223;42.650;23.364;2022-10-31T10:53:24;95283.44;;;22.33;40.96
11099;BME280;12223;42.650;23.364;2022-10-31T10:56:06;95266.34;;;22.19;40.67
11099;BME280;12223;42.650;23.364;2022-10-31T10:58:40;95268.22;;;22.57;40.60
11099;BME280;12223;42.650;23.364;2022-10-31T11:01:11;95279.03;;;22.47;40.08
11099;BME280;12223;42.650;23.364;2022-10-31T11:03:42;95276.00;;;22.25;40.64
11099;BME280;12223;42.650;23.364;2022-10-31T11:06:19;95274.81;;;22.36;40.52
11099;BME280;12223;42.650;23.364;2022-10-31T11:08:50;95270.16;;;22.08;40.78
11099;BME280;12223;42.650;23.364;2022-10-31T11:11:25;95282.03;;;22.01;41.32
11099;BME280;12223;42.650;23.364;2022-10-31T11:13:58;95270.53;;;22.35;40.66
11099;BME280;12223;42.650;23.364;2022-10-31T11:16:31;95268.44;;;22.61;41.24
11099;BME280;12223;42.650;23.364;2022-10-31T11:19:07;95261.56;;;22.78;40.53
11099;BME280;12223;42.650;23.364;2022-10-31T11:21:38;95261.91;;;23.01;39.53
11099;BME280;12223;42.650;23.364;2022-10-31T11:24:14;95265.94;;;22.98;39.14
11099;BME280;12223;42.650;23.364;2022-10-31T11:26:45;95194.19;;;22.55;38.73
11099;BME280;12223;42.650;23.364;2022-10-31T11:29:17;95259.22;;;23.01;39.34
11099;BME280;12223;42.650;23.364;2022-10-31T11:31:46;95242.41;;;23.09;38.86
11099;BME280;12223;42.650;23.364;2022-10-31T11:34:25;95246.69;;;23.10;38.74
11099;BME280;12223;42.650;23.364;2022-10-31T11:37:03;95241.56;;;23.13;38.75
11099;BME280;12223;42.650;23.364;2022-10-31T11:39:31;95224.00;;;22.63;39.41
11099;BME280;12223;42.650;23.364;2022-10-31T11:42:02;95236.09;;;22.95;38.82
11099;BME280;12223;42.650;23.364;2022-10-31T11:44:30;95233.97;;;23.15;38.38
11099;BME280;12223;42.650;23.364;2022-10-31T11:46:59;95236.50;;;23.07;38.71
11099;BME280;12223;42.650;23.364;2022-10-31T11:49:30;95229.81;;;22.70;39.27
11099;BME280;12223;42.650;23.364;2022-10-31T11:52:05;95225.88;;;22.63;39.30
11099;BME280;12223;42.650;23.364;2022-10-31T11:54:47;95225.25;;;22.76;39.23
11099;BME280;12223;42.650;23.364;2022-10-31T11:57:25;95226.06;;;23.00;39.16
11099;BME280;12223;42.650;23.364;2022-10-31T11:59:54;95221.69;;;23.28;38.57
11099;BME280;12223;42.650;23.364;2022-10-31T12:02:21;95218.94;;;23.09;38.34
11099;BME280;12223;42.650;23.364;2022-10-31T12:04:53;95203.66;;;23.05;38.65
11099;BME280;12223;42.650;23.364;2022-10-31T12:07:24;95222.06;;;22.98;38.78
11099;BME280;12223;42.650;23.364;2022-10-31T12:09:51;95219.75;;;23.10;38.68
11099;BME280;12223;42.650;23.364;2022-10-31T12:12:45;95217.81;;;23.15;38.81
11099;BME280;12223;42.650;23.364;2022-10-31T12:15:30;95218.31;;;23.41;38.14
11099;BME280;12223;42.650;23.364;2022-10-31T12:18:36;95219.69;;;23.62;37.89
11099;BME280;12223;42.650;23.364;2022-10-31T12:21:15;95212.13;;;23.64;37.53
11099;BME280;12223;42.650;23.364;2022-10-31T12:23:56;95217.44;;;23.70;37.28
11099;BME280;12223;42.650;23.364;2022-10-31T12:26:34;95216.63;;;23.69;37.37
11099;BME280;12223;42.650;23.364;2022-10-31T12:29:18;95216.91;;;23.68;37.36
11099;BME280;12223;42.650;23.364;2022-10-31T12:32:02;95209.28;;;23.75;37.10
11099;BME280;12223;42.650;23.364;2022-10-31T12:34:46;95208.25;;;23.71;37.19
11099;BME280;12223;42.650;23.364;2022-10-31T12:37:25;95220.78;;;23.80;37.28
11099;BME280;12223;42.650;23.364;2022-10-31T12:40:09;95214.38;;;23.76;36.98
11099;BME280;12223;42.650;23.364;2022-10-31T12:42:51;95206.22;;;23.81;36.50
11099;BME280;12223;42.650;23.364;2022-10-31T12:45:33;95208.66;;;23.96;36.71
11099;BME280;12223;42.650;23.364;2022-10-31T12:48:16;95211.25;;;23.88;36.83
11099;BME280;12223;42.650;23.364;2022-10-31T12:50:54;95208.25;;;23.89;36.75
11099;BME280;12223;42.650;23.364;2022-10-31T12:53:34;95215.19;;;23.95;36.62
11099;BME280;12223;42.650;23.364;2022-10-31T12:56:17;95214.50;;;24.03;36.82
11099;BME280;12223;42.650;23.364;2022-10-31T12:58:52;95217.81;;;23.39;37.27
11099;BME280;12223;42.650;23.364;2022-10-31T13:01:26;95214.00;;;23.40;37.01
11099;BME280;12223;42.650;23.364;2022-10-31T13:03:58;95213.25;;;23.58;37.38
11099;BME280;12223;42.650;23.364;2022-10-31T13:06:32;95211.81;;;23.66;36.99
11099;BME280;12223;42.650;23.364;2022-10-31T13:09:05;95216.34;;;23.71;37.29
11099;BME280;12223;42.650;23.364;2022-10-31T13:11:39;95216.41;;;23.65;37.40
11099;BME280;12223;42.650;23.364;2022-10-31T13:14:12;95201.75;;;23.72;36.79
11099;BME280;12223;42.650;23.364;2022-10-31T13:16:46;95212.41;;;23.82;36.76
11099;BME280;12223;42.650;23.364;2022-10-31T13:19:23;95215.47;;;23.56;36.98